createdAt,value
2018-07-06T00:01:39.585Z,4.27
2018-07-06T00:04:26.322Z,4.90
2018-07-06T00:07:13.144Z,5.17
2018-07-06T00:09:59.842Z,4.03
2018-07-06T00:12:46.564Z,4.50
2018-07-06T00:15:33.138Z,5.33
2018-07-06T00:18:20.225Z,3.73
2018-07-06T00:21:06.781Z,5.90
2018-07-06T00:23:53.598Z,3.60
2018-07-06T00:26:40.505Z,4.23
2018-07-06T00:29:27.304Z,6.73
2018-07-06T00:32:14.093Z,3.47
2018-07-06T00:35:00.946Z,4.50
2018-07-06T00:37:47.759Z,3.40
2018-07-06T00:40:34.731Z,3.90
2018-07-06T00:43:21.372Z,4.30
2018-07-06T00:46:08.220Z,5.87
2018-07-06T00:48:55.136Z,3.57
2018-07-06T00:51:42.111Z,4.17
2018-07-06T00:54:29.021Z,3.97
2018-07-06T00:57:15.877Z,4.47
2018-07-06T01:00:02.763Z,4.53
2018-07-06T01:02:49.607Z,3.90
2018-07-06T01:05:36.348Z,3.90
2018-07-06T01:08:23.440Z,3.70
2018-07-06T01:11:10.465Z,2.93
2018-07-06T01:13:57.114Z,4.47
2018-07-06T01:16:43.827Z,4.07
2018-07-06T01:19:30.726Z,3.43
2018-07-06T01:22:17.641Z,3.60
2018-07-06T01:25:04.486Z,4.00
2018-07-06T01:27:51.234Z,3.80
2018-07-06T01:30:38.185Z,4.07
2018-07-06T01:33:24.873Z,4.00
2018-07-06T01:36:11.836Z,4.03
2018-07-06T01:38:58.603Z,3.13
2018-07-06T01:41:45.632Z,3.50
2018-07-06T01:44:33.038Z,3.03
2018-07-06T01:47:19.776Z,3.60
2018-07-06T01:50:06.560Z,3.33
2018-07-06T01:52:53.743Z,3.30
2018-07-06T01:55:40.773Z,3.57
2018-07-06T01:58:27.600Z,3.43
2018-07-06T02:01:14.516Z,3.20
2018-07-06T02:04:01.284Z,3.47
2018-07-06T02:06:48.678Z,3.67
2018-07-06T02:09:35.529Z,4.27
2018-07-06T02:12:22.296Z,3.63
2018-07-06T02:15:09.084Z,3.27
2018-07-06T02:17:55.799Z,3.80
2018-07-06T02:20:42.814Z,4.57
2018-07-06T02:23:29.706Z,4.07
2018-07-06T02:26:17.161Z,4.07
2018-07-06T02:29:03.844Z,4.20
2018-07-06T02:31:50.677Z,3.60
2018-07-06T02:34:37.853Z,3.90
2018-07-06T02:37:24.754Z,4.50
2018-07-06T02:40:11.433Z,3.80
2018-07-06T02:42:58.286Z,4.40
2018-07-06T02:45:44.977Z,3.93
2018-07-06T02:48:31.642Z,3.60
2018-07-06T02:51:18.372Z,4.60
2018-07-06T02:54:05.414Z,5.33
2018-07-06T02:56:52.507Z,3.90
2018-07-06T02:59:39.311Z,5.13
2018-07-06T03:02:26.197Z,3.50
2018-07-06T03:05:12.809Z,3.60
2018-07-06T03:08:00.165Z,3.90
2018-07-06T03:10:47.063Z,3.40
2018-07-06T03:13:33.760Z,3.40
2018-07-06T03:16:20.583Z,4.30
2018-07-06T03:19:07.467Z,3.30
2018-07-06T03:21:54.388Z,4.03
2018-07-06T03:24:41.151Z,3.53
2018-07-06T03:27:28.029Z,3.40
2018-07-06T03:30:14.727Z,3.33
2018-07-06T03:33:01.797Z,4.67
2018-07-06T03:35:48.523Z,3.70
2018-07-06T03:38:35.361Z,3.37
2018-07-06T03:41:22.037Z,3.17
2018-07-06T03:44:08.732Z,3.77
2018-07-06T03:46:55.403Z,4.00
2018-07-06T03:49:42.297Z,3.30
2018-07-06T03:52:29.257Z,3.50
2018-07-06T03:55:18.321Z,5.70
2018-07-06T03:58:05.472Z,3.10
2018-07-06T04:00:52.189Z,4.97
2018-07-06T04:03:39.100Z,4.10
2018-07-06T04:06:26.398Z,4.00
2018-07-06T04:09:13.165Z,4.20
2018-07-06T04:12:00.757Z,3.73
2018-07-06T04:14:47.534Z,4.00
2018-07-06T04:17:34.517Z,3.83
2018-07-06T04:20:21.388Z,3.60
2018-07-06T04:23:08.051Z,3.30
2018-07-06T04:25:54.633Z,6.60
2018-07-06T04:28:41.382Z,3.67
2018-07-06T04:31:28.418Z,3.73
2018-07-06T04:34:15.213Z,3.73
2018-07-06T04:37:02.280Z,3.70
2018-07-06T04:39:49.207Z,3.73
2018-07-06T04:42:36.185Z,4.33
2018-07-06T04:45:23.128Z,3.50
2018-07-06T04:48:10.605Z,3.27
2018-07-06T04:50:57.460Z,3.70
2018-07-06T04:53:44.338Z,3.80
2018-07-06T04:56:31.055Z,3.27
2018-07-06T04:59:17.754Z,4.00
2018-07-06T05:02:04.720Z,3.93
2018-07-06T05:04:51.832Z,3.77
2018-07-06T05:07:38.563Z,4.87
2018-07-06T05:10:25.690Z,3.70
2018-07-06T05:13:12.559Z,3.27
2018-07-06T05:15:59.339Z,7.63
2018-07-06T05:18:46.201Z,3.23
2018-07-06T05:21:32.931Z,3.50
2018-07-06T05:24:19.924Z,3.53
2018-07-06T05:27:06.683Z,4.90
2018-07-06T05:29:53.480Z,3.83
2018-07-06T05:32:40.207Z,4.57
2018-07-06T05:35:27.092Z,3.17
2018-07-06T05:38:13.805Z,5.33
2018-07-06T05:41:00.474Z,3.40
2018-07-06T05:43:47.373Z,2.93
2018-07-06T05:46:34.174Z,3.80
2018-07-06T05:49:20.767Z,3.57
2018-07-06T05:52:07.566Z,3.50
2018-07-06T05:54:54.365Z,3.80
2018-07-06T05:57:41.378Z,3.30
2018-07-06T06:00:28.287Z,3.07
2018-07-06T06:03:15.266Z,3.50
2018-07-06T06:06:02.072Z,3.50
2018-07-06T06:08:36.475Z,3.53
2018-07-06T06:11:06.380Z,3.40
2018-07-06T06:13:36.461Z,3.57
2018-07-06T06:16:06.789Z,4.37
2018-07-06T06:18:38.338Z,4.00
2018-07-06T06:21:08.332Z,3.27
2018-07-06T06:23:38.414Z,4.30
2018-07-06T06:26:08.730Z,3.60
2018-07-06T06:28:39.232Z,3.77
2018-07-06T06:31:09.544Z,3.77
2018-07-06T06:33:40.149Z,4.77
2018-07-06T06:36:10.591Z,12.87
2018-07-06T06:38:40.905Z,3.10
2018-07-06T06:41:11.455Z,4.17
2018-07-06T06:43:41.344Z,7.40
2018-07-06T06:46:12.470Z,4.03
2018-07-06T06:48:42.723Z,3.67
2018-07-06T06:51:12.835Z,5.20
2018-07-06T06:53:43.124Z,3.90
2018-07-06T06:56:13.491Z,4.10
2018-07-06T06:58:43.929Z,4.33
2018-07-06T07:01:15.074Z,4.37
2018-07-06T07:03:45.352Z,4.73
2018-07-06T07:06:15.968Z,4.50
2018-07-06T07:08:46.323Z,3.90
2018-07-06T07:11:16.609Z,4.10
2018-07-06T07:13:47.662Z,4.53
2018-07-06T07:16:18.617Z,6.13
2018-07-06T07:18:48.869Z,8.27
2018-07-06T07:21:19.585Z,4.73
2018-07-06T07:23:50.735Z,3.90
2018-07-06T07:26:21.670Z,4.93
2018-07-06T07:28:52.540Z,7.73
2018-07-06T07:31:22.831Z,5.63
2018-07-06T07:33:53.441Z,7.40
2018-07-06T07:36:23.752Z,4.70
2018-07-06T07:38:54.210Z,7.13
2018-07-06T07:41:24.994Z,4.97
2018-07-06T07:43:55.150Z,5.13
2018-07-06T07:46:25.705Z,5.70
2018-07-06T07:48:56.411Z,5.13
2018-07-06T07:52:08.775Z,5.33
2018-07-06T07:54:56.557Z,5.37
2018-07-06T07:57:27.096Z,6.33
2018-07-06T07:59:57.257Z,4.90
2018-07-06T08:02:27.946Z,5.10
2018-07-06T08:04:59.066Z,4.60
2018-07-06T08:07:29.547Z,5.17
2018-07-06T08:09:59.626Z,5.03
2018-07-06T08:12:30.194Z,4.37
2018-07-06T08:15:01.301Z,5.83
2018-07-06T08:17:31.561Z,5.10
2018-07-06T08:20:02.314Z,6.30
2018-07-06T08:22:32.209Z,4.90
2018-07-06T08:25:02.639Z,4.87
2018-07-06T08:27:32.834Z,5.10
2018-07-06T08:30:03.610Z,5.00
2018-07-06T08:32:33.463Z,5.27
2018-07-06T08:35:14.631Z,6.60
2018-07-06T08:38:00.801Z,8.47
2018-07-06T08:40:31.079Z,5.87
2018-07-06T08:43:02.278Z,4.83
2018-07-06T08:45:33.299Z,5.33
2018-07-06T08:48:03.500Z,5.40
2018-07-06T08:50:34.226Z,5.80
2018-07-06T08:53:04.557Z,4.77
2018-07-06T08:55:34.773Z,5.40
2018-07-06T08:58:05.087Z,4.53
2018-07-06T09:00:35.406Z,8.07
2018-07-06T09:03:06.179Z,5.47
2018-07-06T09:05:36.481Z,5.60
2018-07-06T09:08:06.720Z,5.70
2018-07-06T09:10:37.015Z,4.80
2018-07-06T09:13:07.908Z,6.47
2018-07-06T09:15:38.400Z,5.70
2018-07-06T09:18:08.545Z,6.20
2018-07-06T09:20:38.852Z,5.57
2018-07-06T09:23:09.502Z,5.07
2018-07-06T09:25:40.373Z,5.80
2018-07-06T09:28:10.574Z,5.87
2018-07-06T09:30:40.766Z,5.97
2018-07-06T09:33:10.869Z,5.90
2018-07-06T09:35:41.511Z,5.57
2018-07-06T09:38:11.988Z,5.67
2018-07-06T09:40:42.218Z,5.60
2018-07-06T09:43:12.479Z,5.90
2018-07-06T09:45:42.807Z,5.80
2018-07-06T09:48:13.511Z,5.80
2018-07-06T09:50:43.749Z,6.30
2018-07-06T09:53:14.150Z,6.90
2018-07-06T09:55:44.412Z,6.37
2018-07-06T09:58:14.579Z,6.23
2018-07-06T10:00:49.946Z,6.60
2018-07-06T10:03:20.241Z,5.90
2018-07-06T10:05:57.297Z,6.67
2018-07-06T10:08:27.516Z,8.13
2018-07-06T10:10:57.690Z,6.43
2018-07-06T10:13:28.030Z,6.80
2018-07-06T10:15:58.286Z,10.10
2018-07-06T10:18:29.105Z,7.60
2018-07-06T10:20:59.438Z,7.67
2018-07-06T10:23:29.545Z,7.57
2018-07-06T10:25:59.944Z,8.40
2018-07-06T10:28:40.484Z,9.60
2018-07-06T10:31:32.810Z,7.13
2018-07-06T10:34:02.710Z,9.40
2018-07-06T10:36:32.630Z,8.60
2018-07-06T10:39:02.901Z,10.93
2018-07-06T10:41:32.975Z,10.63
2018-07-06T10:44:03.373Z,8.83
2018-07-06T10:46:33.584Z,10.10
2018-07-06T10:49:04.151Z,11.70
2018-07-06T10:51:34.573Z,8.30
2018-07-06T10:54:04.786Z,9.80
2018-07-06T10:56:34.950Z,8.77
2018-07-06T10:59:05.323Z,9.47
2018-07-06T11:01:35.724Z,10.27
2018-07-06T11:04:05.964Z,11.90
2018-07-06T11:06:36.368Z,9.33
2018-07-06T11:09:06.791Z,8.93
2018-07-06T11:11:37.222Z,10.20
2018-07-06T11:14:07.914Z,12.57
2018-07-06T11:16:38.160Z,12.80
2018-07-06T11:19:14.750Z,12.33
2018-07-06T11:21:45.257Z,9.87
2018-07-06T11:24:15.335Z,9.43
2018-07-06T11:26:45.710Z,9.00
2018-07-06T11:29:15.916Z,9.60
2018-07-06T11:31:46.169Z,9.23
2018-07-06T11:34:16.339Z,11.57
2018-07-06T11:36:47.317Z,9.80
2018-07-06T11:39:17.412Z,8.80
2018-07-06T11:41:48.008Z,10.23
2018-07-06T11:44:18.448Z,9.90
2018-07-06T11:46:48.579Z,10.90
2018-07-06T11:49:19.105Z,9.47
2018-07-06T11:51:49.854Z,11.70
2018-07-06T11:54:20.074Z,9.97
2018-07-06T11:56:50.411Z,10.20
2018-07-06T11:59:20.726Z,9.27
2018-07-06T12:01:50.832Z,12.00
2018-07-06T12:04:21.261Z,9.77
2018-07-06T12:06:52.325Z,12.17
2018-07-06T12:09:22.355Z,9.57
2018-07-06T12:11:52.577Z,9.40
2018-07-06T12:14:22.602Z,9.30
2018-07-06T12:16:52.772Z,10.43
2018-07-06T12:19:23.256Z,8.87
2018-07-06T12:21:53.767Z,8.03
2018-07-06T12:24:24.051Z,8.13
2018-07-06T12:26:54.266Z,9.53
2018-07-06T12:29:24.223Z,12.63
2018-07-06T12:31:54.250Z,8.30
2018-07-06T12:34:24.456Z,8.80
2018-07-06T12:36:54.679Z,8.90
2018-07-06T12:39:25.115Z,9.63
2018-07-06T12:41:55.279Z,9.10
2018-07-06T12:44:25.369Z,9.67
2018-07-06T12:46:55.528Z,7.10
2018-07-06T12:49:25.707Z,7.30
2018-07-06T12:51:55.959Z,9.97
2018-07-06T12:54:26.110Z,8.50
2018-07-06T12:56:56.323Z,8.43
2018-07-06T12:59:26.650Z,6.73
2018-07-06T13:01:56.848Z,7.20
2018-07-06T13:04:27.111Z,7.90
2018-07-06T13:06:57.215Z,7.50
2018-07-06T13:09:27.281Z,7.00
2018-07-06T13:11:57.347Z,6.60
2018-07-06T13:14:27.719Z,7.10
2018-07-06T13:16:58.171Z,9.10
2018-07-06T13:19:28.378Z,6.20
2018-07-06T13:21:58.629Z,6.90
2018-07-06T13:24:28.895Z,7.03
2018-07-06T13:26:59.125Z,9.13
2018-07-06T13:29:29.316Z,7.10
2018-07-06T13:31:59.682Z,7.17
2018-07-06T13:34:29.893Z,8.20
2018-07-06T13:37:00.048Z,6.67
2018-07-06T13:39:30.810Z,9.40
2018-07-06T17:18:20.336Z,5.37
2018-07-06T17:20:50.566Z,4.70
2018-07-06T17:23:21.083Z,4.83
2018-07-06T17:25:51.311Z,4.70
2018-07-06T17:28:21.789Z,4.60
2018-07-06T17:30:51.947Z,4.80
2018-07-06T17:33:22.235Z,4.70
2018-07-06T17:35:52.653Z,4.30
2018-07-06T17:38:22.945Z,5.27
2018-07-06T17:40:58.652Z,5.07
2018-07-06T17:43:29.331Z,5.53
2018-07-06T17:45:59.788Z,5.20
2018-07-06T17:48:29.784Z,5.53
2018-07-06T17:51:00.045Z,5.53
2018-07-06T17:53:30.281Z,4.67
2018-07-06T17:56:00.991Z,3.80
2018-07-06T17:58:31.280Z,4.33
2018-07-06T18:01:01.767Z,4.40
2018-07-06T18:03:31.999Z,5.70
2018-07-06T18:06:02.548Z,4.10
2018-07-06T18:08:32.644Z,3.67
2018-07-06T18:11:02.860Z,3.70
2018-07-06T18:13:33.238Z,3.80
2018-07-06T18:16:03.997Z,4.23
2018-07-06T18:18:34.380Z,4.27
2018-07-06T18:21:04.691Z,4.90
2018-07-06T18:23:35.298Z,4.73
2018-07-06T18:26:05.571Z,4.80
2018-07-06T18:28:35.846Z,5.47
2018-07-06T18:31:06.280Z,5.40
2018-07-06T18:33:36.383Z,5.27
2018-07-06T18:36:06.610Z,4.43
2018-07-06T18:38:37.000Z,4.57
2018-07-06T18:41:07.267Z,5.77
2018-07-06T18:43:37.343Z,6.33
2018-07-06T18:46:07.901Z,5.27
2018-07-06T18:48:38.174Z,6.50
2018-07-06T18:51:08.636Z,5.67
2018-07-06T18:53:38.974Z,6.33
2018-07-06T18:56:08.984Z,6.27
2018-07-06T18:58:39.385Z,5.23
2018-07-06T19:01:09.931Z,9.13
2018-07-06T19:03:39.957Z,6.50
2018-07-06T19:06:10.288Z,6.50
2018-07-06T19:08:46.992Z,7.83
2018-07-06T19:11:17.120Z,7.33
2018-07-06T19:13:48.228Z,7.37
2018-07-06T19:16:18.370Z,8.37
2018-07-06T19:18:48.760Z,6.23
2018-07-06T19:21:18.839Z,7.77
2018-07-06T19:23:49.130Z,9.30
2018-07-06T19:26:19.208Z,7.23
2018-07-06T19:28:49.392Z,8.83
2018-07-06T19:31:19.640Z,7.73
2018-07-06T19:33:50.087Z,8.53
2018-07-06T19:36:20.235Z,8.97
2018-07-06T19:38:50.781Z,7.73
2018-07-06T19:41:20.967Z,8.40
2018-07-06T19:43:51.339Z,8.47
2018-07-06T19:46:21.669Z,12.13
2018-07-06T19:48:51.958Z,8.20
2018-07-06T19:51:22.253Z,9.10
2018-07-06T19:53:52.328Z,8.23
2018-07-06T19:56:22.595Z,11.50
2018-07-06T19:58:52.882Z,8.70
2018-07-06T20:01:23.062Z,9.03
2018-07-06T20:03:54.208Z,8.80
2018-07-06T20:06:25.581Z,10.57
2018-07-06T20:08:56.186Z,9.53
2018-07-06T20:17:02.861Z,9.77
2018-07-06T20:19:32.952Z,7.47
2018-07-06T20:22:04.492Z,10.20
2018-07-06T20:24:34.886Z,8.17
2018-07-06T20:27:06.324Z,7.67
2018-07-06T20:29:36.516Z,7.40
2018-07-06T20:32:06.623Z,6.83
2018-07-06T20:34:36.861Z,8.47
2018-07-06T20:37:07.071Z,6.83
2018-07-06T20:39:37.526Z,8.10
2018-07-06T20:42:07.818Z,8.83
2018-07-06T20:44:38.021Z,8.17
2018-07-06T20:47:09.214Z,8.63
2018-07-06T20:49:39.518Z,7.70
2018-07-06T20:52:16.051Z,9.20
2018-07-06T20:54:46.193Z,8.67
2018-07-06T20:57:16.428Z,9.17
2018-07-06T20:59:46.775Z,9.00
2018-07-06T21:02:16.859Z,8.37
2018-07-06T21:04:50.079Z,8.13
2018-07-06T21:07:20.386Z,8.17
2018-07-06T21:09:51.549Z,8.33
2018-07-06T21:12:21.859Z,8.03
2018-07-06T21:14:52.132Z,8.47
2018-07-06T21:17:22.398Z,8.93
2018-07-06T21:19:52.898Z,7.57
2018-07-06T21:22:23.321Z,7.27
2018-07-06T21:24:54.149Z,7.77
2018-07-06T21:27:24.605Z,7.60
2018-07-06T21:29:54.859Z,7.20
2018-07-06T21:32:25.195Z,8.00
2018-07-06T21:34:55.474Z,7.97
2018-07-06T21:37:25.835Z,7.77
2018-07-06T21:39:55.909Z,8.13
2018-07-06T21:42:26.240Z,7.43
2018-07-06T21:44:56.723Z,7.17
2018-07-06T21:47:26.983Z,8.10
2018-07-06T21:49:57.494Z,7.57
2018-07-06T21:52:27.785Z,8.50
2018-07-06T21:54:57.743Z,8.80
2018-07-06T21:57:28.556Z,8.23
2018-07-06T21:59:58.727Z,7.40
2018-07-06T22:02:29.141Z,7.20
2018-07-06T22:04:58.978Z,7.60
2018-07-06T22:07:28.708Z,9.20
2018-07-06T22:09:59.064Z,7.67
2018-07-06T22:12:29.203Z,8.10
2018-07-06T22:14:59.187Z,7.53
2018-07-06T22:17:29.558Z,8.10
2018-07-06T22:19:59.762Z,9.70
2018-07-06T22:22:29.892Z,7.87
2018-07-06T22:25:01.337Z,9.97
2018-07-06T22:27:31.546Z,8.37
2018-07-06T22:30:01.821Z,9.40
2018-07-06T22:32:31.706Z,11.63
2018-07-06T22:35:02.030Z,9.63
2018-07-06T22:37:32.205Z,11.97
2018-07-06T22:40:02.588Z,8.13
2018-07-06T22:42:32.857Z,8.33
2018-07-06T22:45:03.242Z,9.20
2018-07-06T22:47:33.823Z,8.13
2018-07-06T22:50:04.139Z,8.60
2018-07-06T22:52:34.507Z,17.03
2018-07-06T22:55:11.149Z,10.30
2018-07-06T22:57:41.419Z,7.40
2018-07-06T23:00:11.661Z,8.77
2018-07-06T23:02:41.231Z,7.73
2018-07-06T23:05:17.906Z,8.63
2018-07-06T23:07:48.256Z,7.70
2018-07-06T23:10:18.281Z,8.50
2018-07-06T23:12:48.471Z,7.53
2018-07-06T23:15:18.886Z,8.00
2018-07-06T23:17:49.072Z,9.17
2018-07-06T23:20:19.263Z,8.33
2018-07-06T23:23:07.186Z,8.03
2018-07-06T23:25:49.547Z,8.47
2018-07-06T23:28:19.923Z,9.13
2018-07-06T23:30:50.276Z,8.00
2018-07-06T23:33:20.501Z,8.77
2018-07-06T23:35:50.646Z,9.10
2018-07-06T23:38:20.762Z,7.97
2018-07-06T23:40:51.062Z,8.47
2018-07-06T23:43:21.371Z,8.10
2018-07-06T23:45:51.698Z,8.97
2018-07-06T23:48:21.836Z,9.40
2018-07-06T23:50:52.547Z,9.10
2018-07-06T23:53:25.833Z,7.73
2018-07-06T23:55:56.268Z,8.90
2018-07-06T23:58:26.450Z,9.13
